HKEL

Eldoret International Airport

Eldoret, Kenya
METAR HKEL 241900Z 28003KT 9999 SCT016 FEW018CB BKN280 18/16 Q1023
Observed Flight Rules
Feb-24 @ 19:00 UTC (an hour ago) Visual Flight Rules
Wind Visibility Clouds
280° at 3 knots 10,000+ meters
  • Scattered at 1,600' AGL
  • Few at 1,800' AGL
  • Broken at 28,000' AGL
Temperatures Readings
Current 18°C / 64°F
Dewpoint 16°C / 61°F
Humidity 88%
Altimeter 30.21" Hg
Pressure 1023 hPa
Elevation 2133
METAR HKEL 241900Z 28003KT 9999 SCT016 FEW018CB BKN280 18/16 Q1023
Observed Flight Rules
Feb-24 @ 19:00 UTC
(an hour ago)
VFR
Wind Visibility
280° at 3 knots 10,000+ meters
Clouds
  • Scattered at 1,600' AGL
  • Few at 1,800' AGL
  • Broken at 28,000' AGL
Temperature Dewpoint
18°C / 64°F 16°C / 61°F
Humidity Altimeter Pressure
88% 30.21" Hg 1023 hPa